createdAt,value
2023-05-12T00:01:54.363Z,73.25
2023-05-12T00:04:57.291Z,73.10
2023-05-12T00:07:59.777Z,72.40
2023-05-12T00:11:02.956Z,73.08
2023-05-12T00:14:05.518Z,73.08
2023-05-12T00:17:09.826Z,72.72
2023-05-12T00:20:12.673Z,72.17
2023-05-12T00:23:15.550Z,71.73
2023-05-12T00:26:17.917Z,72.02
2023-05-12T00:29:21.795Z,72.23
2023-05-12T00:32:24.207Z,71.83
2023-05-12T00:35:27.326Z,71.56
2023-05-12T00:38:29.845Z,71.97
2023-05-12T00:41:32.844Z,72.62
2023-05-12T00:44:35.302Z,72.06
2023-05-12T00:47:38.484Z,72.40
2023-05-12T00:50:40.820Z,71.77
2023-05-12T00:53:49.977Z,71.80
2023-05-12T00:56:53.125Z,72.10
2023-05-12T00:59:56.888Z,72.81
2023-05-12T01:02:59.573Z,73.10
2023-05-12T01:06:18.070Z,72.30
2023-05-12T01:09:21.066Z,73.33
2023-05-12T01:12:24.608Z,73.00
2023-05-12T01:15:27.117Z,72.47
2023-05-12T01:18:33.117Z,72.43
2023-05-12T01:21:35.757Z,73.30
2023-05-12T01:24:58.428Z,73.47
2023-05-12T01:28:02.584Z,73.14
2023-05-12T01:31:06.777Z,73.94
2023-05-12T01:34:14.393Z,74.10
2023-05-12T01:37:17.850Z,73.58
2023-05-12T01:40:20.600Z,73.41
2023-05-12T01:43:23.987Z,73.13
2023-05-12T01:46:26.479Z,73.79
2023-05-12T01:49:30.632Z,73.55
2023-05-12T01:52:33.311Z,73.76
2023-05-12T01:55:36.792Z,74.22
2023-05-12T01:58:39.229Z,74.22
2023-05-12T02:01:42.323Z,74.31
2023-05-12T02:04:45.726Z,74.84
2023-05-12T02:07:48.866Z,74.79
2023-05-12T02:11:03.796Z,74.91
2023-05-12T02:14:06.840Z,75.54
2023-05-12T02:17:09.932Z,75.71
2023-05-12T02:20:13.034Z,76.04
2023-05-12T02:23:15.777Z,76.11
2023-05-12T02:26:19.606Z,76.25
2023-05-12T02:29:23.114Z,76.37
2023-05-12T02:32:30.557Z,76.18
2023-05-12T02:35:35.281Z,76.32
2023-05-12T02:38:39.904Z,76.65
2023-05-12T02:41:43.012Z,76.90
2023-05-12T02:44:46.273Z,77.24
2023-05-12T02:47:48.934Z,77.17
2023-05-12T02:50:51.697Z,76.88
2023-05-12T02:53:54.368Z,77.24
2023-05-12T02:56:58.255Z,77.33
2023-05-12T03:00:01.760Z,76.94
2023-05-12T03:03:04.656Z,77.36
2023-05-12T03:06:07.669Z,77.67
2023-05-12T03:09:10.624Z,78.05
2023-05-12T03:12:13.327Z,78.23
2023-05-12T03:15:16.498Z,78.18
2023-05-12T03:18:19.280Z,78.13
2023-05-12T03:21:22.256Z,78.46
2023-05-12T03:24:24.946Z,78.70
2023-05-12T03:27:27.597Z,78.52
2023-05-12T03:30:30.241Z,78.75
2023-05-12T03:33:32.903Z,78.89
2023-05-12T03:36:35.469Z,78.54
2023-05-12T03:39:38.090Z,78.53
2023-05-12T03:42:41.128Z,77.83
2023-05-12T03:45:45.007Z,77.99
2023-05-12T03:48:47.623Z,78.78
2023-05-12T03:51:50.555Z,78.76
2023-05-12T03:54:54.342Z,79.13
2023-05-12T03:57:57.063Z,78.64
2023-05-12T04:01:01.670Z,78.70
2023-05-12T04:04:04.950Z,78.53
2023-05-12T04:07:07.424Z,78.75
2023-05-12T04:10:10.483Z,77.23
2023-05-12T04:13:13.347Z,78.20
2023-05-12T04:16:16.392Z,79.01
2023-05-12T04:19:18.782Z,79.48
2023-05-12T04:22:22.897Z,79.54
2023-05-12T04:25:27.515Z,79.55
2023-05-12T04:28:30.466Z,79.05
2023-05-12T04:31:32.921Z,79.20
2023-05-12T04:34:36.383Z,79.32
2023-05-12T04:37:39.055Z,79.21
2023-05-12T04:40:43.078Z,78.66
2023-05-12T04:46:54.142Z,78.00
2023-05-12T04:49:56.463Z,78.49
2023-05-12T04:52:59.363Z,78.73
2023-05-12T04:56:01.974Z,78.60
2023-05-12T04:59:05.353Z,78.20
2023-05-12T05:02:08.419Z,78.62
2023-05-12T05:05:11.919Z,78.45
2023-05-12T05:08:17.596Z,78.57
2023-05-12T05:11:22.364Z,78.49
2023-05-12T05:14:24.961Z,78.98
2023-05-12T05:17:29.236Z,78.82
2023-05-12T05:20:34.395Z,78.74
2023-05-12T05:23:37.569Z,79.20
2023-05-12T05:26:42.365Z,79.04
2023-05-12T05:29:45.479Z,79.34
2023-05-12T05:32:48.096Z,79.41
2023-05-12T05:35:51.162Z,79.42
2023-05-12T05:38:54.619Z,79.37
2023-05-12T05:42:00.589Z,79.26
2023-05-12T05:45:03.098Z,78.80
2023-05-12T05:48:07.185Z,78.40
2023-05-12T05:51:11.563Z,78.17
2023-05-12T05:54:14.902Z,78.40
2023-05-12T05:57:17.409Z,77.84
2023-05-12T06:00:21.078Z,77.59
2023-05-12T06:03:24.647Z,77.65
2023-05-12T06:06:28.657Z,77.20
2023-05-12T06:09:32.359Z,76.98
2023-05-12T06:12:35.033Z,76.36
2023-05-12T06:15:37.714Z,76.33
2023-05-12T06:18:40.575Z,75.98
2023-05-12T06:21:43.657Z,76.42
2023-05-12T06:24:46.488Z,76.13
2023-05-12T06:27:51.501Z,76.08
2023-05-12T06:30:54.085Z,76.56
2023-05-12T06:33:56.757Z,76.97
2023-05-12T06:36:59.634Z,77.41
2023-05-12T06:40:02.265Z,77.48
2023-05-12T06:43:04.911Z,77.92
2023-05-12T06:46:08.984Z,78.56
2023-05-12T06:49:12.136Z,78.06
2023-05-12T06:52:14.735Z,77.47
2023-05-12T06:55:20.103Z,77.04
2023-05-12T06:58:23.156Z,76.12
2023-05-12T07:01:25.774Z,75.85
2023-05-12T07:04:29.758Z,75.70
2023-05-12T07:07:32.470Z,75.23
2023-05-12T07:10:35.328Z,75.16
2023-05-12T07:13:38.481Z,75.46
2023-05-12T07:16:41.152Z,75.51
2023-05-12T07:19:43.923Z,76.02
2023-05-12T07:22:46.530Z,76.14
2023-05-12T07:25:49.653Z,76.03
2023-05-12T07:28:52.951Z,75.46
2023-05-12T07:31:55.903Z,75.69
2023-05-12T07:34:58.560Z,73.90
2023-05-12T07:38:03.272Z,74.19
2023-05-12T07:41:05.900Z,73.69
2023-05-12T07:44:08.994Z,74.30
2023-05-12T07:47:11.655Z,73.80
2023-05-12T07:50:16.044Z,73.74
2023-05-12T07:53:18.992Z,73.12
2023-05-12T07:56:21.946Z,72.33
2023-05-12T07:59:24.980Z,72.20
2023-05-12T08:02:27.683Z,72.25
2023-05-12T08:05:30.443Z,72.07
2023-05-12T08:08:33.618Z,71.78
2023-05-12T08:11:36.261Z,69.79
2023-05-12T08:14:38.894Z,69.64
2023-05-12T08:17:42.208Z,70.83
2023-05-12T08:20:44.999Z,71.22
2023-05-12T08:23:47.670Z,70.44
2023-05-12T08:26:50.480Z,70.54
2023-05-12T08:29:53.233Z,70.46
2023-05-12T08:32:56.861Z,68.10
2023-05-12T08:36:00.826Z,68.79
2023-05-12T08:39:04.077Z,69.72
2023-05-12T08:42:19.080Z,68.80
2023-05-12T08:45:22.902Z,68.90
2023-05-12T08:48:27.635Z,67.76
2023-05-12T08:51:32.343Z,66.46
2023-05-12T08:54:42.455Z,67.14
2023-05-12T08:57:52.141Z,67.83
2023-05-12T09:00:54.891Z,66.88
2023-05-12T09:03:57.697Z,66.92
2023-05-12T09:07:00.591Z,67.03
2023-05-12T09:10:03.726Z,68.25
2023-05-12T09:13:20.524Z,68.76
2023-05-12T09:16:24.682Z,68.61
2023-05-12T09:19:28.008Z,68.20
2023-05-12T09:22:31.616Z,68.65
2023-05-12T09:25:34.253Z,69.26
2023-05-12T09:28:37.957Z,69.90
2023-05-12T09:31:48.932Z,71.08
2023-05-12T09:34:51.582Z,72.13
2023-05-12T09:37:54.233Z,73.13
2023-05-12T09:40:57.062Z,73.99
2023-05-12T09:44:00.060Z,74.41
2023-05-12T09:47:10.087Z,73.90
2023-05-12T09:50:12.982Z,73.95
2023-05-12T09:53:17.576Z,74.97
2023-05-12T09:56:21.324Z,74.59
2023-05-12T09:59:27.146Z,75.07
2023-05-12T10:02:30.735Z,75.62
2023-05-12T10:05:34.454Z,75.81
2023-05-12T10:08:42.260Z,75.82
2023-05-12T10:11:46.853Z,76.45
2023-05-12T10:14:49.950Z,76.86
2023-05-12T10:17:55.315Z,77.47
2023-05-12T10:20:58.077Z,78.13
2023-05-12T10:24:03.737Z,78.92
2023-05-12T10:27:06.413Z,78.01
2023-05-12T10:30:10.435Z,78.79
2023-05-12T10:33:13.144Z,79.11
2023-05-12T10:36:19.726Z,79.40
2023-05-12T10:39:27.796Z,79.30
2023-05-12T10:42:37.687Z,80.31
2023-05-12T10:45:40.076Z,79.20
2023-05-12T10:51:59.293Z,79.94
2023-05-12T10:55:03.500Z,81.08
2023-05-12T10:58:07.460Z,80.81
2023-05-12T11:01:11.233Z,81.19
2023-05-12T11:04:16.120Z,79.48
2023-05-12T11:07:27.073Z,79.56
2023-05-12T11:10:31.144Z,80.41
2023-05-12T11:13:35.514Z,80.33
2023-05-12T11:16:44.287Z,80.41
2023-05-12T11:19:50.481Z,80.78
2023-05-12T11:22:54.100Z,81.35
2023-05-12T11:25:57.249Z,80.64
2023-05-12T11:28:59.862Z,80.52
2023-05-12T11:32:02.951Z,81.46
2023-05-12T11:35:12.599Z,80.47
2023-05-12T11:38:19.297Z,80.14
2023-05-12T11:41:28.642Z,79.90
2023-05-12T11:44:31.737Z,80.62
2023-05-12T11:47:34.427Z,80.71
2023-05-12T11:50:38.874Z,81.11
2023-05-12T11:53:41.193Z,80.86
2023-05-12T11:56:50.936Z,80.60
2023-05-12T11:59:57.992Z,80.79
2023-05-12T12:03:11.618Z,80.70
2023-05-12T12:06:14.842Z,79.81
2023-05-12T12:09:17.444Z,77.32
2023-05-12T12:12:20.170Z,78.91
2023-05-12T12:15:22.810Z,78.92
2023-05-12T12:18:25.384Z,80.92
2023-05-12T12:21:28.065Z,80.33
2023-05-12T12:24:31.078Z,81.28
2023-05-12T12:27:33.701Z,80.80
2023-05-12T12:30:36.321Z,79.94
2023-05-12T12:33:38.940Z,80.98
2023-05-12T12:36:41.700Z,81.64
2023-05-12T12:39:44.644Z,81.59
2023-05-12T12:42:47.423Z,79.47
2023-05-12T12:45:50.569Z,78.49
2023-05-12T12:48:53.590Z,80.01
2023-05-12T12:51:56.370Z,80.93
2023-05-12T12:54:59.034Z,80.19
2023-05-12T12:58:01.796Z,80.32
2023-05-12T13:01:04.555Z,80.91
2023-05-12T13:04:07.166Z,80.06
2023-05-12T13:07:10.290Z,80.62
2023-05-12T13:10:13.472Z,80.43
2023-05-12T13:13:16.166Z,79.80
2023-05-12T13:16:18.962Z,79.82
2023-05-12T13:19:22.033Z,80.17
2023-05-12T13:22:27.437Z,80.38
2023-05-12T13:25:32.191Z,80.05
2023-05-12T13:28:34.749Z,80.87
2023-05-12T13:31:38.728Z,81.62
2023-05-12T13:34:41.808Z,81.60
2023-05-12T13:37:44.466Z,81.91
2023-05-12T13:40:47.097Z,81.83
2023-05-12T13:43:49.846Z,80.85
2023-05-12T13:46:52.623Z,80.30
2023-05-12T13:49:56.602Z,80.68
2023-05-12T13:52:59.281Z,80.48
2023-05-12T13:56:02.075Z,79.13
2023-05-12T13:59:05.083Z,78.33
2023-05-12T14:02:11.500Z,78.95
2023-05-12T14:05:14.842Z,80.56
2023-05-12T14:08:17.278Z,80.28
2023-05-12T14:11:20.217Z,81.44
2023-05-12T14:14:22.594Z,80.95
2023-05-12T14:17:25.575Z,81.70
2023-05-12T14:20:27.933Z,81.73
2023-05-12T14:23:31.004Z,82.38
2023-05-12T14:26:33.448Z,83.24
2023-05-12T14:29:36.330Z,83.45
2023-05-12T14:32:38.641Z,82.87
2023-05-12T14:35:42.205Z,83.64
2023-05-12T14:38:45.516Z,84.08
2023-05-12T14:41:48.499Z,83.80
2023-05-12T14:44:50.839Z,83.92
2023-05-12T14:47:54.025Z,84.24
2023-05-12T14:50:57.957Z,83.72
2023-05-12T14:54:05.178Z,83.61
2023-05-12T14:57:10.702Z,83.70
2023-05-12T15:00:15.152Z,83.61
2023-05-12T15:03:18.150Z,83.24
2023-05-12T15:06:21.162Z,83.30
2023-05-12T15:09:23.593Z,83.23
2023-05-12T15:12:26.784Z,83.22
2023-05-12T15:15:29.119Z,83.07
2023-05-12T15:18:32.009Z,83.12
2023-05-12T15:21:34.828Z,82.83
2023-05-12T15:24:38.461Z,83.34
2023-05-12T15:27:41.296Z,83.54
2023-05-12T15:30:45.153Z,83.33
2023-05-12T15:33:47.436Z,83.57
2023-05-12T15:36:50.868Z,83.56
2023-05-12T15:39:53.153Z,83.60
2023-05-12T15:42:56.434Z,83.51
2023-05-12T15:45:58.740Z,83.83
2023-05-12T15:49:01.908Z,83.71
2023-05-12T15:52:04.427Z,84.08
2023-05-12T15:55:07.519Z,83.72
2023-05-12T15:58:09.891Z,83.75
2023-05-12T16:01:13.191Z,83.80
2023-05-12T16:04:16.024Z,84.00
2023-05-12T16:07:21.064Z,84.55
2023-05-12T16:10:24.535Z,84.41
2023-05-12T16:13:27.142Z,84.42
2023-05-12T16:16:30.046Z,83.77
2023-05-12T16:19:32.684Z,83.20
2023-05-12T16:22:35.274Z,83.41
2023-05-12T16:25:37.861Z,83.67
2023-05-12T16:28:40.488Z,83.28
2023-05-12T16:31:43.104Z,82.96
2023-05-12T16:34:45.753Z,83.18
2023-05-12T16:37:48.444Z,83.08
2023-05-12T16:40:51.055Z,83.01
2023-05-12T16:43:54.539Z,83.15
2023-05-12T16:46:57.178Z,83.48
2023-05-12T16:50:00.001Z,83.71
2023-05-12T16:53:02.682Z,83.71
2023-05-12T16:56:05.463Z,83.52
2023-05-12T16:59:08.162Z,83.52
2023-05-12T17:02:11.122Z,83.87
2023-05-12T17:05:13.821Z,83.94
2023-05-12T17:08:18.301Z,84.09
2023-05-12T17:11:21.569Z,84.24
2023-05-12T17:14:24.312Z,84.13
2023-05-12T17:17:27.183Z,84.51
2023-05-12T17:20:29.913Z,84.93
2023-05-12T17:23:34.387Z,84.03
2023-05-12T17:26:36.991Z,84.21
2023-05-12T17:29:39.581Z,84.22
2023-05-12T17:32:42.523Z,84.22
2023-05-12T17:35:53.988Z,84.78
2023-05-12T17:39:06.904Z,85.26
2023-05-12T17:42:09.642Z,84.88
2023-05-12T17:45:14.420Z,85.16
2023-05-12T17:48:17.019Z,85.20
2023-05-12T17:51:19.667Z,85.61
2023-05-12T17:54:22.330Z,85.79
2023-05-12T17:57:24.962Z,85.85
2023-05-12T18:00:28.271Z,86.07
2023-05-12T18:03:31.252Z,86.12
2023-05-12T18:06:33.908Z,86.12
2023-05-12T18:09:36.973Z,86.17
2023-05-12T18:12:39.576Z,86.66
2023-05-12T18:15:42.623Z,86.64
2023-05-12T18:18:48.032Z,86.63
2023-05-12T18:21:51.996Z,86.42
2023-05-12T18:24:55.819Z,86.75
2023-05-12T18:27:59.304Z,86.42
2023-05-12T18:31:09.161Z,86.30
2023-05-12T18:34:18.384Z,85.82
2023-05-12T18:37:20.695Z,85.70
2023-05-12T18:40:23.804Z,85.76
2023-05-12T18:43:26.170Z,85.83
2023-05-12T18:46:29.678Z,85.78
2023-05-12T18:49:32.234Z,86.05
2023-05-12T18:52:35.613Z,84.95
2023-05-12T18:55:37.949Z,85.42
2023-05-12T18:58:40.843Z,85.56
2023-05-12T19:01:43.199Z,85.52
2023-05-12T19:04:46.426Z,85.59
2023-05-12T19:07:48.854Z,85.64
2023-05-12T19:10:52.314Z,85.55
2023-05-12T19:13:54.624Z,85.61
2023-05-12T19:16:58.546Z,85.44
2023-05-12T19:20:01.045Z,85.43
2023-05-12T19:23:04.089Z,85.49
2023-05-12T19:26:07.231Z,85.78
2023-05-12T19:29:10.137Z,85.94
2023-05-12T19:32:13.255Z,85.68
2023-05-12T19:35:16.805Z,85.75
2023-05-12T19:38:19.612Z,85.96
2023-05-12T19:41:22.667Z,86.30
2023-05-12T19:44:25.002Z,86.23
2023-05-12T19:47:28.205Z,86.15
2023-05-12T19:50:30.735Z,86.33
2023-05-12T19:53:33.826Z,86.54
2023-05-12T19:56:36.133Z,86.63
2023-05-12T19:59:39.093Z,86.55
2023-05-12T20:02:41.832Z,86.71
2023-05-12T20:05:45.765Z,86.95
2023-05-12T20:08:49.679Z,87.02
2023-05-12T20:11:52.947Z,87.43
2023-05-12T20:14:55.671Z,87.80
2023-05-12T20:17:58.653Z,88.06
2023-05-12T20:21:03.227Z,88.11
2023-05-12T20:24:07.230Z,88.21
2023-05-12T20:27:09.554Z,88.46
2023-05-12T20:30:13.418Z,88.58
2023-05-12T20:33:16.018Z,88.59
2023-05-12T20:36:19.506Z,88.71
2023-05-12T20:39:21.824Z,88.89
2023-05-12T20:42:24.772Z,88.83
2023-05-12T20:45:27.159Z,89.07
2023-05-12T20:48:30.179Z,89.22
2023-05-12T20:51:32.608Z,89.67
2023-05-12T20:54:35.602Z,89.82
2023-05-12T20:57:40.083Z,89.68
2023-05-12T21:00:43.250Z,89.56
2023-05-12T21:03:46.386Z,89.85
2023-05-12T21:06:50.591Z,90.17
2023-05-12T21:09:55.035Z,90.30
2023-05-12T21:12:58.094Z,90.39
2023-05-12T21:16:00.478Z,89.78
2023-05-12T21:19:03.627Z,90.21
2023-05-12T21:22:06.933Z,90.28
2023-05-12T21:25:10.621Z,90.36
2023-05-12T21:28:13.125Z,90.34
2023-05-12T21:31:16.045Z,90.37
2023-05-12T21:34:18.341Z,90.47
2023-05-12T21:37:21.270Z,90.46
2023-05-12T21:40:23.686Z,90.46
2023-05-12T21:43:26.676Z,90.40
2023-05-12T21:46:28.999Z,90.47
2023-05-12T21:49:32.011Z,90.43
2023-05-12T21:52:34.363Z,90.48
2023-05-12T21:55:37.256Z,90.55
2023-05-12T21:58:39.587Z,90.57
2023-05-12T22:01:44.760Z,90.44
2023-05-12T22:04:47.996Z,90.32
2023-05-12T22:07:50.629Z,90.43
2023-05-12T22:10:53.231Z,90.43
2023-05-12T22:13:55.913Z,90.40
2023-05-12T22:16:58.679Z,90.04
2023-05-12T22:20:01.265Z,90.08
2023-05-12T22:23:04.157Z,90.19
2023-05-12T22:26:06.942Z,90.30
2023-05-12T22:29:09.552Z,90.38
2023-05-12T22:32:12.152Z,90.35
2023-05-12T22:35:14.841Z,90.16
2023-05-12T22:38:17.489Z,90.16
2023-05-12T22:41:20.120Z,90.15
2023-05-12T22:44:22.799Z,90.14
2023-05-12T22:47:25.440Z,90.11
2023-05-12T22:50:28.168Z,89.79
2023-05-12T22:53:31.200Z,89.49
2023-05-12T22:56:34.784Z,89.43
2023-05-12T22:59:37.356Z,89.51
2023-05-12T23:02:39.993Z,89.02
2023-05-12T23:05:42.626Z,88.67
2023-05-12T23:08:45.393Z,88.07
2023-05-12T23:11:48.068Z,87.70
2023-05-12T23:14:50.778Z,87.87
2023-05-12T23:17:53.526Z,87.78
2023-05-12T23:20:56.115Z,87.70
2023-05-12T23:23:58.741Z,87.74
2023-05-12T23:27:01.520Z,87.60
2023-05-12T23:30:04.732Z,87.81
2023-05-12T23:33:07.522Z,87.93
2023-05-12T23:36:10.194Z,87.97
2023-05-12T23:39:13.649Z,87.79
2023-05-12T23:42:17.281Z,87.98
2023-05-12T23:45:19.885Z,88.00
2023-05-12T23:48:22.526Z,88.11
2023-05-12T23:51:25.917Z,87.82
2023-05-12T23:54:28.949Z,87.43
2023-05-12T23:57:31.543Z,87.23
